sensor_id;sensor_type;location;lat;lon;timestamp;temperature;humidity
10451;DHT22;5273;51.290;6.918;2023-04-25T00:01:27;7.10;99.90
10451;DHT22;5273;51.290;6.918;2023-04-25T00:03:53;7.00;99.90
10451;DHT22;5273;51.290;6.918;2023-04-25T00:06:22;7.10;99.90
10451;DHT22;5273;51.290;6.918;2023-04-25T00:08:52;7.10;99.90
10451;DHT22;5273;51.290;6.918;2023-04-25T00:11:18;7.20;99.90
10451;DHT22;5273;51.290;6.918;2023-04-25T00:13:45;7.20;99.90
10451;DHT22;5273;51.290;6.918;2023-04-25T00:16:15;7.10;99.90
10451;DHT22;5273;51.290;6.918;2023-04-25T00:18:42;7.20;99.90
10451;DHT22;5273;51.290;6.918;2023-04-25T00:21:09;7.20;99.90
10451;DHT22;5273;51.290;6.918;2023-04-25T00:23:37;7.20;99.90
10451;DHT22;5273;51.290;6.918;2023-04-25T00:26:05;7.20;99.90
10451;DHT22;5273;51.290;6.918;2023-04-25T00:28:31;7.20;99.90
10451;DHT22;5273;51.290;6.918;2023-04-25T00:30:58;7.20;99.90
10451;DHT22;5273;51.290;6.918;2023-04-25T00:33:25;7.20;99.90
10451;DHT22;5273;51.290;6.918;2023-04-25T00:35:52;7.30;99.90
10451;DHT22;5273;51.290;6.918;2023-04-25T00:38:19;7.20;99.90
10451;DHT22;5273;51.290;6.918;2023-04-25T00:40:47;7.30;99.90
10451;DHT22;5273;51.290;6.918;2023-04-25T00:43:14;7.30;99.90
10451;DHT22;5273;51.290;6.918;2023-04-25T00:45:43;7.30;99.90
10451;DHT22;5273;51.290;6.918;2023-04-25T00:48:10;7.30;99.90
10451;DHT22;5273;51.290;6.918;2023-04-25T00:50:38;7.40;99.90
10451;DHT22;5273;51.290;6.918;2023-04-25T00:53:05;7.30;99.90
10451;DHT22;5273;51.290;6.918;2023-04-25T00:55:31;7.30;99.90
10451;DHT22;5273;51.290;6.918;2023-04-25T00:58:01;7.30;99.90
10451;DHT22;5273;51.290;6.918;2023-04-25T01:00:28;7.30;99.90
10451;DHT22;5273;51.290;6.918;2023-04-25T01:02:55;7.30;99.90
10451;DHT22;5273;51.290;6.918;2023-04-25T01:05:22;7.30;99.90
10451;DHT22;5273;51.290;6.918;2023-04-25T01:07:49;7.30;99.90
10451;DHT22;5273;51.290;6.918;2023-04-25T01:10:16;7.20;99.90
10451;DHT22;5273;51.290;6.918;2023-04-25T01:12:43;7.30;99.90
10451;DHT22;5273;51.290;6.918;2023-04-25T01:15:12;7.30;99.90
10451;DHT22;5273;51.290;6.918;2023-04-25T01:17:39;7.30;99.90
10451;DHT22;5273;51.290;6.918;2023-04-25T01:20:07;7.20;99.90
10451;DHT22;5273;51.290;6.918;2023-04-25T01:22:37;7.20;99.90
10451;DHT22;5273;51.290;6.918;2023-04-25T01:25:04;7.20;99.90
10451;DHT22;5273;51.290;6.918;2023-04-25T01:27:31;7.20;99.90
10451;DHT22;5273;51.290;6.918;2023-04-25T01:29:59;7.20;99.90
10451;DHT22;5273;51.290;6.918;2023-04-25T01:32:26;7.20;99.90
10451;DHT22;5273;51.290;6.918;2023-04-25T01:34:53;7.20;99.90
10451;DHT22;5273;51.290;6.918;2023-04-25T01:37:20;7.20;99.90
10451;DHT22;5273;51.290;6.918;2023-04-25T01:39:48;7.20;99.90
10451;DHT22;5273;51.290;6.918;2023-04-25T01:42:15;7.20;99.90
10451;DHT22;5273;51.290;6.918;2023-04-25T01:44:42;7.20;99.90
10451;DHT22;5273;51.290;6.918;2023-04-25T01:47:09;7.20;99.90
10451;DHT22;5273;51.290;6.918;2023-04-25T01:49:36;7.20;99.90
10451;DHT22;5273;51.290;6.918;2023-04-25T01:52:03;7.20;99.90
10451;DHT22;5273;51.290;6.918;2023-04-25T01:54:30;7.20;99.90
10451;DHT22;5273;51.290;6.918;2023-04-25T01:56:58;7.20;99.90
10451;DHT22;5273;51.290;6.918;2023-04-25T01:59:25;7.30;99.90
10451;DHT22;5273;51.290;6.918;2023-04-25T02:01:52;7.20;99.90
10451;DHT22;5273;51.290;6.918;2023-04-25T02:04:19;7.20;99.90
10451;DHT22;5273;51.290;6.918;2023-04-25T02:06:46;7.20;99.90
10451;DHT22;5273;51.290;6.918;2023-04-25T02:09:13;7.10;99.90
10451;DHT22;5273;51.290;6.918;2023-04-25T02:11:39;7.20;99.90
10451;DHT22;5273;51.290;6.918;2023-04-25T02:14:07;7.10;99.90
10451;DHT22;5273;51.290;6.918;2023-04-25T02:16:34;7.10;99.90
10451;DHT22;5273;51.290;6.918;2023-04-25T02:19:02;7.10;99.90
10451;DHT22;5273;51.290;6.918;2023-04-25T02:21:29;7.10;99.90
10451;DHT22;5273;51.290;6.918;2023-04-25T02:23:56;7.10;99.90
10451;DHT22;5273;51.290;6.918;2023-04-25T02:26:23;7.10;99.90
10451;DHT22;5273;51.290;6.918;2023-04-25T02:28:50;7.10;99.90
10451;DHT22;5273;51.290;6.918;2023-04-25T02:31:18;7.10;99.90
10451;DHT22;5273;51.290;6.918;2023-04-25T02:33:45;7.10;99.90
10451;DHT22;5273;51.290;6.918;2023-04-25T02:36:12;7.10;99.90
10451;DHT22;5273;51.290;6.918;2023-04-25T02:38:39;7.10;99.90
10451;DHT22;5273;51.290;6.918;2023-04-25T02:41:05;7.00;99.90
10451;DHT22;5273;51.290;6.918;2023-04-25T02:43:32;7.10;99.90
10451;DHT22;5273;51.290;6.918;2023-04-25T02:45:59;7.00;99.90
10451;DHT22;5273;51.290;6.918;2023-04-25T02:48:27;7.00;99.90
10451;DHT22;5273;51.290;6.918;2023-04-25T02:50:54;7.00;99.90
10451;DHT22;5273;51.290;6.918;2023-04-25T02:53:21;7.10;99.90
10451;DHT22;5273;51.290;6.918;2023-04-25T02:55:48;7.10;99.90
10451;DHT22;5273;51.290;6.918;2023-04-25T02:58:15;7.10;99.90
10451;DHT22;5273;51.290;6.918;2023-04-25T03:00:42;7.10;99.90
10451;DHT22;5273;51.290;6.918;2023-04-25T03:03:09;7.10;99.90
10451;DHT22;5273;51.290;6.918;2023-04-25T03:05:37;7.10;99.90
10451;DHT22;5273;51.290;6.918;2023-04-25T03:08:04;7.10;99.90
10451;DHT22;5273;51.290;6.918;2023-04-25T03:10:31;7.00;99.90
10451;DHT22;5273;51.290;6.918;2023-04-25T03:12:58;7.00;99.90
10451;DHT22;5273;51.290;6.918;2023-04-25T03:15:24;7.00;99.90
10451;DHT22;5273;51.290;6.918;2023-04-25T03:17:52;7.00;99.90
10451;DHT22;5273;51.290;6.918;2023-04-25T03:20:18;7.00;99.90
10451;DHT22;5273;51.290;6.918;2023-04-25T03:22:47;7.00;99.90
10451;DHT22;5273;51.290;6.918;2023-04-25T03:25:13;7.00;99.90
10451;DHT22;5273;51.290;6.918;2023-04-25T03:27:40;7.00;99.90
10451;DHT22;5273;51.290;6.918;2023-04-25T03:30:08;7.00;99.90
10451;DHT22;5273;51.290;6.918;2023-04-25T03:32:34;6.90;99.90
10451;DHT22;5273;51.290;6.918;2023-04-25T03:35:01;6.90;99.90
10451;DHT22;5273;51.290;6.918;2023-04-25T03:37:28;6.90;99.90
10451;DHT22;5273;51.290;6.918;2023-04-25T03:39:56;6.90;99.90
10451;DHT22;5273;51.290;6.918;2023-04-25T03:42:23;6.80;99.90
10451;DHT22;5273;51.290;6.918;2023-04-25T03:44:51;6.80;99.90
10451;DHT22;5273;51.290;6.918;2023-04-25T03:47:18;6.80;99.90
10451;DHT22;5273;51.290;6.918;2023-04-25T03:49:45;6.80;99.90
10451;DHT22;5273;51.290;6.918;2023-04-25T03:52:12;6.60;99.90
10451;DHT22;5273;51.290;6.918;2023-04-25T03:54:38;6.70;99.90
10451;DHT22;5273;51.290;6.918;2023-04-25T03:57:07;6.70;99.90
10451;DHT22;5273;51.290;6.918;2023-04-25T03:59:33;6.70;99.90
10451;DHT22;5273;51.290;6.918;2023-04-25T04:02:00;6.80;99.90
10451;DHT22;5273;51.290;6.918;2023-04-25T04:04:27;6.80;99.90
10451;DHT22;5273;51.290;6.918;2023-04-25T04:06:54;6.70;99.90
10451;DHT22;5273;51.290;6.918;2023-04-25T04:09:20;6.70;99.90
10451;DHT22;5273;51.290;6.918;2023-04-25T04:11:47;6.60;99.90
10451;DHT22;5273;51.290;6.918;2023-04-25T04:14:15;6.60;99.90
10451;DHT22;5273;51.290;6.918;2023-04-25T04:16:42;6.70;99.90
10451;DHT22;5273;51.290;6.918;2023-04-25T04:19:09;6.70;99.90
10451;DHT22;5273;51.290;6.918;2023-04-25T04:21:36;6.70;99.90
10451;DHT22;5273;51.290;6.918;2023-04-25T04:24:03;6.60;99.90
10451;DHT22;5273;51.290;6.918;2023-04-25T04:26:31;6.60;99.90
10451;DHT22;5273;51.290;6.918;2023-04-25T04:28:59;6.60;99.90
10451;DHT22;5273;51.290;6.918;2023-04-25T04:31:28;6.70;99.90
10451;DHT22;5273;51.290;6.918;2023-04-25T04:33:55;6.70;99.90
10451;DHT22;5273;51.290;6.918;2023-04-25T04:36:22;6.70;99.90
10451;DHT22;5273;51.290;6.918;2023-04-25T04:38:51;6.70;99.90
10451;DHT22;5273;51.290;6.918;2023-04-25T04:41:18;6.70;99.90
10451;DHT22;5273;51.290;6.918;2023-04-25T04:43:45;6.60;99.90
10451;DHT22;5273;51.290;6.918;2023-04-25T04:46:12;6.60;99.90
10451;DHT22;5273;51.290;6.918;2023-04-25T04:48:41;6.60;99.90
10451;DHT22;5273;51.290;6.918;2023-04-25T04:51:08;6.70;99.90
10451;DHT22;5273;51.290;6.918;2023-04-25T04:53:34;6.60;99.90
10451;DHT22;5273;51.290;6.918;2023-04-25T04:56:01;6.60;99.90
10451;DHT22;5273;51.290;6.918;2023-04-25T04:58:28;6.60;99.90
10451;DHT22;5273;51.290;6.918;2023-04-25T05:00:56;6.60;99.90
10451;DHT22;5273;51.290;6.918;2023-04-25T05:03:23;6.70;99.90
10451;DHT22;5273;51.290;6.918;2023-04-25T05:05:51;6.70;99.90
10451;DHT22;5273;51.290;6.918;2023-04-25T05:08:18;6.70;99.90
10451;DHT22;5273;51.290;6.918;2023-04-25T05:10:44;6.70;99.90
10451;DHT22;5273;51.290;6.918;2023-04-25T05:13:11;6.80;99.90
10451;DHT22;5273;51.290;6.918;2023-04-25T05:15:38;6.80;99.90
10451;DHT22;5273;51.290;6.918;2023-04-25T05:18:05;6.90;99.90
10451;DHT22;5273;51.290;6.918;2023-04-25T05:20:32;6.90;99.90
10451;DHT22;5273;51.290;6.918;2023-04-25T05:23:00;7.00;99.90
10451;DHT22;5273;51.290;6.918;2023-04-25T05:25:26;7.00;99.90
10451;DHT22;5273;51.290;6.918;2023-04-25T05:27:53;7.20;99.90
10451;DHT22;5273;51.290;6.918;2023-04-25T05:30:20;7.30;99.90
10451;DHT22;5273;51.290;6.918;2023-04-25T05:32:47;7.40;99.90
10451;DHT22;5273;51.290;6.918;2023-04-25T05:35:14;7.50;99.90
10451;DHT22;5273;51.290;6.918;2023-04-25T05:37:41;7.60;99.90
10451;DHT22;5273;51.290;6.918;2023-04-25T05:40:10;7.70;99.90
10451;DHT22;5273;51.290;6.918;2023-04-25T05:42:36;7.80;99.90
10451;DHT22;5273;51.290;6.918;2023-04-25T05:45:04;7.80;99.90
10451;DHT22;5273;51.290;6.918;2023-04-25T05:47:31;7.80;99.90
10451;DHT22;5273;51.290;6.918;2023-04-25T05:49:57;8.00;99.90
10451;DHT22;5273;51.290;6.918;2023-04-25T05:52:24;8.10;99.90
10451;DHT22;5273;51.290;6.918;2023-04-25T05:54:51;8.10;99.90
10451;DHT22;5273;51.290;6.918;2023-04-25T05:57:22;8.10;99.90
10451;DHT22;5273;51.290;6.918;2023-04-25T05:59:48;8.20;99.90
10451;DHT22;5273;51.290;6.918;2023-04-25T06:02:15;8.30;99.90
10451;DHT22;5273;51.290;6.918;2023-04-25T06:04:42;8.40;99.90
10451;DHT22;5273;51.290;6.918;2023-04-25T06:07:09;8.50;99.90
10451;DHT22;5273;51.290;6.918;2023-04-25T06:09:37;8.60;99.90
10451;DHT22;5273;51.290;6.918;2023-04-25T06:12:05;8.80;99.90
10451;DHT22;5273;51.290;6.918;2023-04-25T06:14:33;8.90;99.90
10451;DHT22;5273;51.290;6.918;2023-04-25T06:17:00;9.10;99.90
10451;DHT22;5273;51.290;6.918;2023-04-25T06:19:32;9.20;99.90
10451;DHT22;5273;51.290;6.918;2023-04-25T06:21:58;9.40;99.90
10451;DHT22;5273;51.290;6.918;2023-04-25T06:24:25;9.50;99.90
10451;DHT22;5273;51.290;6.918;2023-04-25T06:26:52;9.60;99.90
10451;DHT22;5273;51.290;6.918;2023-04-25T06:29:19;9.70;99.90
10451;DHT22;5273;51.290;6.918;2023-04-25T06:31:47;9.70;99.90
10451;DHT22;5273;51.290;6.918;2023-04-25T06:34:14;10.00;99.90
10451;DHT22;5273;51.290;6.918;2023-04-25T06:36:40;10.30;99.90
10451;DHT22;5273;51.290;6.918;2023-04-25T06:39:07;10.60;99.90
10451;DHT22;5273;51.290;6.918;2023-04-25T06:41:34;11.50;99.90
10451;DHT22;5273;51.290;6.918;2023-04-25T06:44:01;12.50;98.80
10451;DHT22;5273;51.290;6.918;2023-04-25T06:46:28;13.40;98.10
10451;DHT22;5273;51.290;6.918;2023-04-25T06:48:56;14.40;95.40
10451;DHT22;5273;51.290;6.918;2023-04-25T06:51:23;14.90;93.00
10451;DHT22;5273;51.290;6.918;2023-04-25T06:53:53;15.40;90.30
10451;DHT22;5273;51.290;6.918;2023-04-25T06:56:20;15.90;89.80
10451;DHT22;5273;51.290;6.918;2023-04-25T06:58:48;16.50;84.10
10451;DHT22;5273;51.290;6.918;2023-04-25T07:01:15;17.10;79.20
10451;DHT22;5273;51.290;6.918;2023-04-25T07:03:42;17.60;76.50
10451;DHT22;5273;51.290;6.918;2023-04-25T07:06:10;18.20;75.70
10451;DHT22;5273;51.290;6.918;2023-04-25T07:08:37;18.60;71.20
10451;DHT22;5273;51.290;6.918;2023-04-25T07:11:04;18.70;68.60
10451;DHT22;5273;51.290;6.918;2023-04-25T07:13:31;18.80;66.30
10451;DHT22;5273;51.290;6.918;2023-04-25T07:15:57;18.70;61.60
10451;DHT22;5273;51.290;6.918;2023-04-25T07:18:24;18.30;61.40
10451;DHT22;5273;51.290;6.918;2023-04-25T07:20:51;17.50;60.00
10451;DHT22;5273;51.290;6.918;2023-04-25T07:23:20;16.80;62.10
10451;DHT22;5273;51.290;6.918;2023-04-25T07:25:47;15.90;65.20
10451;DHT22;5273;51.290;6.918;2023-04-25T07:28:13;15.20;67.20
10451;DHT22;5273;51.290;6.918;2023-04-25T07:30:40;14.50;69.30
10451;DHT22;5273;51.290;6.918;2023-04-25T07:33:07;13.90;71.30
10451;DHT22;5273;51.290;6.918;2023-04-25T07:35:34;13.40;74.50
10451;DHT22;5273;51.290;6.918;2023-04-25T07:38:02;12.90;76.70
10451;DHT22;5273;51.290;6.918;2023-04-25T07:40:30;12.80;79.80
10451;DHT22;5273;51.290;6.918;2023-04-25T07:42:56;13.40;81.90
10451;DHT22;5273;51.290;6.918;2023-04-25T07:45:23;14.00;80.10
10451;DHT22;5273;51.290;6.918;2023-04-25T07:47:50;14.80;77.30
10451;DHT22;5273;51.290;6.918;2023-04-25T07:50:17;15.90;76.30
10451;DHT22;5273;51.290;6.918;2023-04-25T07:52:44;17.40;71.70
10451;DHT22;5273;51.290;6.918;2023-04-25T07:55:11;18.50;63.90
10451;DHT22;5273;51.290;6.918;2023-04-25T07:57:39;19.60;59.50
10451;DHT22;5273;51.290;6.918;2023-04-25T08:00:07;20.60;58.80
10451;DHT22;5273;51.290;6.918;2023-04-25T08:02:37;21.50;55.90
10451;DHT22;5273;51.290;6.918;2023-04-25T08:05:04;22.10;54.30
10451;DHT22;5273;51.290;6.918;2023-04-25T08:07:33;22.20;52.40
10451;DHT22;5273;51.290;6.918;2023-04-25T08:10:00;22.90;49.70
10451;DHT22;5273;51.290;6.918;2023-04-25T08:12:28;23.30;46.50
10451;DHT22;5273;51.290;6.918;2023-04-25T08:14:56;22.80;43.90
10451;DHT22;5273;51.290;6.918;2023-04-25T08:17:23;21.60;44.80
10451;DHT22;5273;51.290;6.918;2023-04-25T08:19:50;21.20;46.60
10451;DHT22;5273;51.290;6.918;2023-04-25T08:22:17;21.30;45.80
10451;DHT22;5273;51.290;6.918;2023-04-25T08:24:44;21.10;45.10
10451;DHT22;5273;51.290;6.918;2023-04-25T08:27:11;20.60;46.50
10451;DHT22;5273;51.290;6.918;2023-04-25T08:29:37;20.00;45.20
10451;DHT22;5273;51.290;6.918;2023-04-25T08:32:06;19.40;47.30
10451;DHT22;5273;51.290;6.918;2023-04-25T08:34:32;18.70;49.20
10451;DHT22;5273;51.290;6.918;2023-04-25T08:36:59;18.30;50.20
10451;DHT22;5273;51.290;6.918;2023-04-25T08:39:26;18.20;51.90
10451;DHT22;5273;51.290;6.918;2023-04-25T08:41:53;18.60;51.20
10451;DHT22;5273;51.290;6.918;2023-04-25T08:44:20;18.60;51.10
10451;DHT22;5273;51.290;6.918;2023-04-25T08:46:47;18.40;51.70
10451;DHT22;5273;51.290;6.918;2023-04-25T08:49:17;18.00;50.20
10451;DHT22;5273;51.290;6.918;2023-04-25T08:51:46;17.60;51.30
10451;DHT22;5273;51.290;6.918;2023-04-25T08:54:14;17.30;51.60
10451;DHT22;5273;51.290;6.918;2023-04-25T08:56:44;17.00;51.90
10451;DHT22;5273;51.290;6.918;2023-04-25T08:59:11;16.70;53.50
10451;DHT22;5273;51.290;6.918;2023-04-25T09:01:39;16.40;53.00
10451;DHT22;5273;51.290;6.918;2023-04-25T09:04:06;16.00;54.00
10451;DHT22;5273;51.290;6.918;2023-04-25T09:06:35;15.70;54.20
10451;DHT22;5273;51.290;6.918;2023-04-25T09:09:03;15.40;54.10
10451;DHT22;5273;51.290;6.918;2023-04-25T09:11:31;15.00;55.80
10451;DHT22;5273;51.290;6.918;2023-04-25T09:14:14;15.00;55.80
10451;DHT22;5273;51.290;6.918;2023-04-25T09:16:57;15.10;55.90
10451;DHT22;5273;51.290;6.918;2023-04-25T09:19:26;15.30;56.70
10451;DHT22;5273;51.290;6.918;2023-04-25T09:21:55;15.30;56.90
10451;DHT22;5273;51.290;6.918;2023-04-25T09:24:31;15.50;56.50
10451;DHT22;5273;51.290;6.918;2023-04-25T09:26:58;15.70;55.60
10451;DHT22;5273;51.290;6.918;2023-04-25T09:29:31;15.70;55.50
10451;DHT22;5273;51.290;6.918;2023-04-25T09:32:13;15.50;54.60
10451;DHT22;5273;51.290;6.918;2023-04-25T09:34:40;15.20;53.60
10451;DHT22;5273;51.290;6.918;2023-04-25T09:37:10;14.80;54.20
10451;DHT22;5273;51.290;6.918;2023-04-25T09:39:37;14.70;56.80
10451;DHT22;5273;51.290;6.918;2023-04-25T09:42:04;14.50;56.80
10451;DHT22;5273;51.290;6.918;2023-04-25T09:44:32;14.40;56.50
10451;DHT22;5273;51.290;6.918;2023-04-25T09:46:59;14.40;57.10
10451;DHT22;5273;51.290;6.918;2023-04-25T09:49:26;14.90;57.90
10451;DHT22;5273;51.290;6.918;2023-04-25T09:51:56;16.10;60.70
10451;DHT22;5273;51.290;6.918;2023-04-25T09:54:25;17.70;55.60
10451;DHT22;5273;51.290;6.918;2023-04-25T09:56:53;19.10;52.90
10451;DHT22;5273;51.290;6.918;2023-04-25T09:59:20;20.00;48.00
10451;DHT22;5273;51.290;6.918;2023-04-25T10:01:49;20.60;48.60
10451;DHT22;5273;51.290;6.918;2023-04-25T10:04:19;21.10;48.30
10451;DHT22;5273;51.290;6.918;2023-04-25T10:06:48;21.30;44.80
10451;DHT22;5273;51.290;6.918;2023-04-25T10:09:16;21.00;43.60
10451;DHT22;5273;51.290;6.918;2023-04-25T10:11:47;20.50;43.00
10451;DHT22;5273;51.290;6.918;2023-04-25T10:14:14;19.60;43.30
10451;DHT22;5273;51.290;6.918;2023-04-25T10:16:42;19.00;45.20
10451;DHT22;5273;51.290;6.918;2023-04-25T10:19:09;18.30;45.80
10451;DHT22;5273;51.290;6.918;2023-04-25T10:21:44;17.80;46.30
10451;DHT22;5273;51.290;6.918;2023-04-25T10:24:13;17.40;46.80
10451;DHT22;5273;51.290;6.918;2023-04-25T10:26:40;17.00;46.80
10451;DHT22;5273;51.290;6.918;2023-04-25T10:29:09;16.60;47.00
10451;DHT22;5273;51.290;6.918;2023-04-25T10:31:45;16.30;48.60
10451;DHT22;5273;51.290;6.918;2023-04-25T10:34:12;16.00;44.80
10451;DHT22;5273;51.290;6.918;2023-04-25T10:36:39;15.90;44.00
10451;DHT22;5273;51.290;6.918;2023-04-25T10:39:06;15.90;46.70
10451;DHT22;5273;51.290;6.918;2023-04-25T10:41:46;16.00;47.00
10451;DHT22;5273;51.290;6.918;2023-04-25T10:44:15;16.20;46.60
10451;DHT22;5273;51.290;6.918;2023-04-25T10:46:44;16.20;47.70
10451;DHT22;5273;51.290;6.918;2023-04-25T10:49:28;16.30;47.70
10451;DHT22;5273;51.290;6.918;2023-04-25T10:52:11;16.60;48.10
10451;DHT22;5273;51.290;6.918;2023-04-25T10:54:41;16.70;46.60
10451;DHT22;5273;51.290;6.918;2023-04-25T10:57:26;16.60;46.40
10451;DHT22;5273;51.290;6.918;2023-04-25T10:59:58;16.30;46.60
10451;DHT22;5273;51.290;6.918;2023-04-25T11:02:26;15.90;46.90
10451;DHT22;5273;51.290;6.918;2023-04-25T11:04:54;15.70;46.60
10451;DHT22;5273;51.290;6.918;2023-04-25T11:07:29;15.40;47.70
10451;DHT22;5273;51.290;6.918;2023-04-25T11:10:01;15.30;49.30
10451;DHT22;5273;51.290;6.918;2023-04-25T11:12:30;15.30;50.60
10451;DHT22;5273;51.290;6.918;2023-04-25T11:15:03;15.40;50.70
10451;DHT22;5273;51.290;6.918;2023-04-25T11:17:31;15.40;50.90
10451;DHT22;5273;51.290;6.918;2023-04-25T11:19:58;15.60;52.50
10451;DHT22;5273;51.290;6.918;2023-04-25T11:22:26;15.70;53.30
10451;DHT22;5273;51.290;6.918;2023-04-25T11:24:54;16.20;51.50
10451;DHT22;5273;51.290;6.918;2023-04-25T11:27:21;16.40;48.20
10451;DHT22;5273;51.290;6.918;2023-04-25T11:29:50;16.50;50.40
10451;DHT22;5273;51.290;6.918;2023-04-25T11:32:18;16.50;48.10
10451;DHT22;5273;51.290;6.918;2023-04-25T11:34:46;16.40;47.30
10451;DHT22;5273;51.290;6.918;2023-04-25T11:37:14;16.10;46.90
10451;DHT22;5273;51.290;6.918;2023-04-25T11:39:43;15.90;49.50
10451;DHT22;5273;51.290;6.918;2023-04-25T11:42:11;15.40;51.30
10451;DHT22;5273;51.290;6.918;2023-04-25T11:44:39;15.00;53.30
10451;DHT22;5273;51.290;6.918;2023-04-25T11:47:06;14.60;54.40
10451;DHT22;5273;51.290;6.918;2023-04-25T11:49:35;14.40;55.30
10451;DHT22;5273;51.290;6.918;2023-04-25T11:52:02;14.20;55.60
10451;DHT22;5273;51.290;6.918;2023-04-25T11:54:29;14.00;56.70
10451;DHT22;5273;51.290;6.918;2023-04-25T11:56:56;13.90;57.30
10451;DHT22;5273;51.290;6.918;2023-04-25T11:59:24;13.80;59.20
10451;DHT22;5273;51.290;6.918;2023-04-25T12:01:52;13.50;60.00
10451;DHT22;5273;51.290;6.918;2023-04-25T12:04:20;13.60;61.30
10451;DHT22;5273;51.290;6.918;2023-04-25T12:06:50;13.50;62.20
10451;DHT22;5273;51.290;6.918;2023-04-25T12:09:19;13.70;61.70
10451;DHT22;5273;51.290;6.918;2023-04-25T12:11:47;13.90;59.40
10451;DHT22;5273;51.290;6.918;2023-04-25T12:14:21;13.80;58.90
10451;DHT22;5273;51.290;6.918;2023-04-25T12:16:49;13.80;59.70
10451;DHT22;5273;51.290;6.918;2023-04-25T12:19:18;13.90;59.50
10451;DHT22;5273;51.290;6.918;2023-04-25T12:21:46;13.90;59.70
10451;DHT22;5273;51.290;6.918;2023-04-25T12:24:15;13.60;59.10
10451;DHT22;5273;51.290;6.918;2023-04-25T12:26:51;13.40;60.00
10451;DHT22;5273;51.290;6.918;2023-04-25T12:29:20;13.30;61.40
10451;DHT22;5273;51.290;6.918;2023-04-25T12:31:47;13.30;62.40
10451;DHT22;5273;51.290;6.918;2023-04-25T12:34:15;13.20;63.00
10451;DHT22;5273;51.290;6.918;2023-04-25T12:36:42;12.80;65.70
10451;DHT22;5273;51.290;6.918;2023-04-25T12:39:15;12.40;67.50
10451;DHT22;5273;51.290;6.918;2023-04-25T12:41:43;12.20;70.70
10451;DHT22;5273;51.290;6.918;2023-04-25T12:44:10;12.00;72.20
10451;DHT22;5273;51.290;6.918;2023-04-25T12:46:37;12.10;74.70
10451;DHT22;5273;51.290;6.918;2023-04-25T12:49:04;12.20;76.50
10451;DHT22;5273;51.290;6.918;2023-04-25T12:51:32;12.40;78.70
10451;DHT22;5273;51.290;6.918;2023-04-25T12:53:59;12.60;76.00
10451;DHT22;5273;51.290;6.918;2023-04-25T12:56:28;12.80;75.00
10451;DHT22;5273;51.290;6.918;2023-04-25T12:58:54;13.10;75.20
10451;DHT22;5273;51.290;6.918;2023-04-25T13:01:22;13.30;73.90
10451;DHT22;5273;51.290;6.918;2023-04-25T13:03:49;13.60;71.90
10451;DHT22;5273;51.290;6.918;2023-04-25T13:06:17;13.70;68.00
10451;DHT22;5273;51.290;6.918;2023-04-25T13:08:44;13.90;70.80
10451;DHT22;5273;51.290;6.918;2023-04-25T13:11:11;14.10;70.30
10451;DHT22;5273;51.290;6.918;2023-04-25T13:13:41;14.40;67.80
10451;DHT22;5273;51.290;6.918;2023-04-25T13:16:08;14.50;66.80
10451;DHT22;5273;51.290;6.918;2023-04-25T13:18:35;14.60;63.80
10451;DHT22;5273;51.290;6.918;2023-04-25T13:21:03;14.50;61.00
10451;DHT22;5273;51.290;6.918;2023-04-25T13:23:30;14.30;59.50
10451;DHT22;5273;51.290;6.918;2023-04-25T13:25:57;14.10;61.60
10451;DHT22;5273;51.290;6.918;2023-04-25T13:28:24;14.10;63.30
10451;DHT22;5273;51.290;6.918;2023-04-25T13:30:52;14.20;65.20
10451;DHT22;5273;51.290;6.918;2023-04-25T13:33:20;14.10;59.50
10451;DHT22;5273;51.290;6.918;2023-04-25T13:35:48;13.80;57.50
10451;DHT22;5273;51.290;6.918;2023-04-25T13:38:20;13.70;59.30
10451;DHT22;5273;51.290;6.918;2023-04-25T13:40:47;13.70;59.10
10451;DHT22;5273;51.290;6.918;2023-04-25T13:43:14;13.50;59.00
10451;DHT22;5273;51.290;6.918;2023-04-25T13:45:41;13.40;62.30
10451;DHT22;5273;51.290;6.918;2023-04-25T13:48:10;13.00;64.90
10451;DHT22;5273;51.290;6.918;2023-04-25T13:50:37;12.70;67.70
10451;DHT22;5273;51.290;6.918;2023-04-25T13:53:04;12.40;70.40
10451;DHT22;5273;51.290;6.918;2023-04-25T13:55:31;12.10;70.90
10451;DHT22;5273;51.290;6.918;2023-04-25T13:57:58;11.90;72.80
10451;DHT22;5273;51.290;6.918;2023-04-25T14:00:25;11.90;74.10
10451;DHT22;5273;51.290;6.918;2023-04-25T14:02:51;12.00;74.00
10451;DHT22;5273;51.290;6.918;2023-04-25T14:05:20;12.00;73.80
10451;DHT22;5273;51.290;6.918;2023-04-25T14:07:47;12.10;74.30
10451;DHT22;5273;51.290;6.918;2023-04-25T14:10:14;12.00;74.70
10451;DHT22;5273;51.290;6.918;2023-04-25T14:12:41;12.10;75.50
10451;DHT22;5273;51.290;6.918;2023-04-25T14:15:08;12.20;75.60
10451;DHT22;5273;51.290;6.918;2023-04-25T14:17:36;12.30;75.70
10451;DHT22;5273;51.290;6.918;2023-04-25T14:20:03;12.50;75.60
10451;DHT22;5273;51.290;6.918;2023-04-25T14:22:34;12.80;73.20
10451;DHT22;5273;51.290;6.918;2023-04-25T14:25:01;12.80;71.10
10451;DHT22;5273;51.290;6.918;2023-04-25T14:27:28;12.90;70.90
10451;DHT22;5273;51.290;6.918;2023-04-25T14:29:55;12.90;72.50
10451;DHT22;5273;51.290;6.918;2023-04-25T14:32:22;12.90;70.70
10451;DHT22;5273;51.290;6.918;2023-04-25T14:34:49;12.90;72.20
10451;DHT22;5273;51.290;6.918;2023-04-25T14:37:16;12.90;70.90
10451;DHT22;5273;51.290;6.918;2023-04-25T14:39:44;13.00;66.90
10451;DHT22;5273;51.290;6.918;2023-04-25T14:42:11;12.90;67.30
10451;DHT22;5273;51.290;6.918;2023-04-25T14:44:38;12.90;66.80
10451;DHT22;5273;51.290;6.918;2023-04-25T14:47:05;12.80;66.10
10451;DHT22;5273;51.290;6.918;2023-04-25T14:49:32;12.80;65.80
10451;DHT22;5273;51.290;6.918;2023-04-25T14:51:59;12.70;64.70
10451;DHT22;5273;51.290;6.918;2023-04-25T14:54:26;12.80;64.50
10451;DHT22;5273;51.290;6.918;2023-04-25T14:56:54;12.90;67.30
10451;DHT22;5273;51.290;6.918;2023-04-25T14:59:22;13.10;66.70
10451;DHT22;5273;51.290;6.918;2023-04-25T15:01:50;13.10;66.50
10451;DHT22;5273;51.290;6.918;2023-04-25T15:04:17;13.20;63.80
10451;DHT22;5273;51.290;6.918;2023-04-25T15:06:44;13.30;61.80
10451;DHT22;5273;51.290;6.918;2023-04-25T15:09:11;13.20;63.10
10451;DHT22;5273;51.290;6.918;2023-04-25T15:11:38;13.10;61.20
10451;DHT22;5273;51.290;6.918;2023-04-25T15:14:06;13.00;61.10
10451;DHT22;5273;51.290;6.918;2023-04-25T15:16:33;12.70;62.30
10451;DHT22;5273;51.290;6.918;2023-04-25T15:19:00;12.50;64.00
10451;DHT22;5273;51.290;6.918;2023-04-25T15:21:29;12.30;64.00
10451;DHT22;5273;51.290;6.918;2023-04-25T15:23:56;12.20;67.60
10451;DHT22;5273;51.290;6.918;2023-04-25T15:26:23;12.00;67.70
10451;DHT22;5273;51.290;6.918;2023-04-25T15:28:50;11.90;69.40
10451;DHT22;5273;51.290;6.918;2023-04-25T15:31:19;11.80;71.40
10451;DHT22;5273;51.290;6.918;2023-04-25T15:33:46;11.60;72.60
10451;DHT22;5273;51.290;6.918;2023-04-25T15:36:13;11.70;73.00
10451;DHT22;5273;51.290;6.918;2023-04-25T15:38:41;11.60;72.80
10451;DHT22;5273;51.290;6.918;2023-04-25T15:41:08;11.60;73.50
10451;DHT22;5273;51.290;6.918;2023-04-25T15:43:35;11.70;75.70
10451;DHT22;5273;51.290;6.918;2023-04-25T15:46:03;12.10;74.90
10451;DHT22;5273;51.290;6.918;2023-04-25T15:48:32;12.20;73.20
10451;DHT22;5273;51.290;6.918;2023-04-25T15:50:59;12.30;70.90
10451;DHT22;5273;51.290;6.918;2023-04-25T15:53:26;12.30;70.70
10451;DHT22;5273;51.290;6.918;2023-04-25T15:55:53;12.20;67.70